Gates Mills, Ohio
Current Conditions -  °F | °C
As of 7:45 AM on Thursday 30 Oct 2014 (Local Time) from KCGF Reporting Station
Broken Clouds Broken Clouds  
Wind Chill: 43°   Ceiling: 2400
Heat Index: 46°   Visibility: 10mi
Dew Point: 39°   Wind: 7mph
Humidity: 76%   Direction: 350°N
Pressure: 30.11"   Gusts: NA
Location:  41.52°N, 81.4°W
Report Text: KCGF 301145Z 35006KT 10SM BKN024 BKN040 08/04 A3011
Loading
Personal Weather Stations






























Interactive Weather Map
Tropical Storm Tracking
New forecast layout! Learn more

10-Day Weather Forecast

Advertisements
Track Severe Weather on mobile